sensor_id;sensor_type;location;lat;lon;timestamp;pressure;altitude;pressure_sealevel;temperature;humidity
60820;BME280;46641;48.904;9.126;2023-07-31T00:02:39;98593.72;;;23.57;50.21
60820;BME280;46641;48.904;9.126;2023-07-31T00:07:29;98593.13;;;23.55;50.09
60820;BME280;46641;48.904;9.126;2023-07-31T00:12:21;98597.06;;;23.52;50.28
60820;BME280;46641;48.904;9.126;2023-07-31T00:17:11;98597.19;;;23.46;50.37
60820;BME280;46641;48.904;9.126;2023-07-31T00:22:02;98600.91;;;23.45;50.67
60820;BME280;46641;48.904;9.126;2023-07-31T00:26:52;98593.13;;;23.43;50.58
60820;BME280;46641;48.904;9.126;2023-07-31T00:31:42;98604.03;;;23.42;50.33
60820;BME280;46641;48.904;9.126;2023-07-31T00:36:33;98604.03;;;23.42;50.50
60820;BME280;46641;48.904;9.126;2023-07-31T00:41:23;98604.47;;;23.39;50.44
60820;BME280;46641;48.904;9.126;2023-07-31T00:46:13;98604.13;;;23.35;50.55
60820;BME280;46641;48.904;9.126;2023-07-31T00:51:03;98603.31;;;23.35;50.61
60820;BME280;46641;48.904;9.126;2023-07-31T00:55:54;98587.75;;;23.31;50.77
60820;BME280;46641;48.904;9.126;2023-07-31T01:00:44;98590.28;;;23.26;50.70
60820;BME280;46641;48.904;9.126;2023-07-31T01:06:06;98602.00;;;23.25;50.51
60820;BME280;46641;48.904;9.126;2023-07-31T01:11:04;98584.56;;;23.23;50.43
60820;BME280;46641;48.904;9.126;2023-07-31T01:15:57;98582.59;;;23.18;50.69
60820;BME280;46641;48.904;9.126;2023-07-31T01:20:54;98575.63;;;23.17;50.67
60820;BME280;46641;48.904;9.126;2023-07-31T01:30:55;98560.88;;;23.15;50.75
60820;BME280;46641;48.904;9.126;2023-07-31T01:35:48;98554.13;;;23.12;50.66
60820;BME280;46641;48.904;9.126;2023-07-31T01:40:41;98542.63;;;23.12;50.94
60820;BME280;46641;48.904;9.126;2023-07-31T01:45:32;98544.72;;;23.09;50.75
60820;BME280;46641;48.904;9.126;2023-07-31T01:50:22;98546.56;;;23.09;50.58
60820;BME280;46641;48.904;9.126;2023-07-31T01:55:13;98542.84;;;23.10;50.92
60820;BME280;46641;48.904;9.126;2023-07-31T02:00:04;98536.94;;;23.08;50.65
60820;BME280;46641;48.904;9.126;2023-07-31T02:04:54;98532.28;;;23.03;50.61
60820;BME280;46641;48.904;9.126;2023-07-31T02:09:44;98526.38;;;23.01;51.07
60820;BME280;46641;48.904;9.126;2023-07-31T02:14:36;98529.69;;;22.97;50.75
60820;BME280;46641;48.904;9.126;2023-07-31T02:19:27;98514.13;;;22.94;51.00
60820;BME280;46641;48.904;9.126;2023-07-31T02:24:17;98513.31;;;22.93;51.02
60820;BME280;46641;48.904;9.126;2023-07-31T02:29:08;98510.25;;;22.90;50.97
60820;BME280;46641;48.904;9.126;2023-07-31T02:33:58;98499.38;;;22.91;51.07
60820;BME280;46641;48.904;9.126;2023-07-31T02:38:48;98499.38;;;22.91;51.25
60820;BME280;46641;48.904;9.126;2023-07-31T02:43:39;98490.53;;;22.91;50.94
60820;BME280;46641;48.904;9.126;2023-07-31T02:48:29;98490.97;;;22.87;51.00
60820;BME280;46641;48.904;9.126;2023-07-31T02:53:20;98487.75;;;22.85;50.74
60820;BME280;46641;48.904;9.126;2023-07-31T02:58:10;98493.66;;;22.87;50.97
60820;BME280;46641;48.904;9.126;2023-07-31T03:03:00;98489.59;;;22.85;51.12
60820;BME280;46641;48.904;9.126;2023-07-31T03:07:50;98495.16;;;22.83;50.97
60820;BME280;46641;48.904;9.126;2023-07-31T03:12:41;98503.16;;;22.83;51.17
60820;BME280;46641;48.904;9.126;2023-07-31T03:17:31;98496.88;;;22.78;51.16
60820;BME280;46641;48.904;9.126;2023-07-31T03:22:22;98501.53;;;22.82;50.89
60820;BME280;46641;48.904;9.126;2023-07-31T03:27:12;98490.06;;;22.82;50.73
60820;BME280;46641;48.904;9.126;2023-07-31T03:32:02;98503.03;;;22.78;51.09
60820;BME280;46641;48.904;9.126;2023-07-31T03:36:53;98502.19;;;22.78;50.61
60820;BME280;46641;48.904;9.126;2023-07-31T03:41:43;98500.38;;;22.78;51.05
60820;BME280;46641;48.904;9.126;2023-07-31T03:46:33;98505.72;;;22.78;50.80
60820;BME280;46641;48.904;9.126;2023-07-31T03:51:24;98497.78;;;22.72;50.90
60820;BME280;46641;48.904;9.126;2023-07-31T03:56:15;98500.22;;;22.73;51.31
60820;BME280;46641;48.904;9.126;2023-07-31T04:01:05;98494.09;;;22.73;50.83
60820;BME280;46641;48.904;9.126;2023-07-31T04:05:56;98493.03;;;22.74;51.10
60820;BME280;46641;48.904;9.126;2023-07-31T04:10:46;98494.28;;;22.71;50.88
60820;BME280;46641;48.904;9.126;2023-07-31T04:15:37;98491.72;;;22.64;51.17
60820;BME280;46641;48.904;9.126;2023-07-31T04:20:27;98488.84;;;22.66;51.26
60820;BME280;46641;48.904;9.126;2023-07-31T04:25:18;98484.50;;;22.65;51.33
60820;BME280;46641;48.904;9.126;2023-07-31T04:30:08;98482.09;;;22.63;51.09
60820;BME280;46641;48.904;9.126;2023-07-31T04:34:58;98486.16;;;22.66;50.87
60820;BME280;46641;48.904;9.126;2023-07-31T04:39:49;98482.09;;;22.63;51.07
60820;BME280;46641;48.904;9.126;2023-07-31T04:44:39;98486.25;;;22.59;50.94
60820;BME280;46641;48.904;9.126;2023-07-31T04:49:29;98482.78;;;22.59;51.14
60820;BME280;46641;48.904;9.126;2023-07-31T04:54:20;98476.41;;;22.60;51.31
60820;BME280;46641;48.904;9.126;2023-07-31T04:59:10;98474.78;;;22.59;51.02
60820;BME280;46641;48.904;9.126;2023-07-31T05:04:00;98476.41;;;22.60;50.84
60820;BME280;46641;48.904;9.126;2023-07-31T05:08:51;98473.13;;;22.58;51.40
60820;BME280;46641;48.904;9.126;2023-07-31T05:13:41;98463.25;;;22.58;51.22
60820;BME280;46641;48.904;9.126;2023-07-31T05:18:31;98468.47;;;21.80;50.44
60820;BME280;46641;48.904;9.126;2023-07-31T05:23:22;98468.47;;;21.80;50.11
60820;BME280;46641;48.904;9.126;2023-07-31T05:28:12;98474.69;;;21.74;49.75
60820;BME280;46641;48.904;9.126;2023-07-31T05:33:03;98468.97;;;21.52;50.74
60820;BME280;46641;48.904;9.126;2023-07-31T05:37:53;98463.09;;;21.86;50.22
60820;BME280;46641;48.904;9.126;2023-07-31T05:42:43;98463.69;;;22.07;49.94
60820;BME280;46641;48.904;9.126;2023-07-31T05:47:34;98469.56;;;22.15;49.62
60820;BME280;46641;48.904;9.126;2023-07-31T05:52:24;98463.22;;;22.16;49.93
60820;BME280;46641;48.904;9.126;2023-07-31T05:57:14;98463.22;;;22.16;49.90
60820;BME280;46641;48.904;9.126;2023-07-31T06:02:05;98468.31;;;22.18;49.96
60820;BME280;46641;48.904;9.126;2023-07-31T06:06:56;98464.59;;;22.19;50.04
60820;BME280;46641;48.904;9.126;2023-07-31T06:11:46;98460.91;;;22.20;50.20
60820;BME280;46641;48.904;9.126;2023-07-31T06:16:37;98466.00;;;22.22;50.26
60820;BME280;46641;48.904;9.126;2023-07-31T06:21:27;98466.00;;;22.22;50.46
60820;BME280;46641;48.904;9.126;2023-07-31T06:26:17;98467.63;;;22.23;50.41
60820;BME280;46641;48.904;9.126;2023-07-31T06:31:08;98466.38;;;22.25;50.53
60820;BME280;46641;48.904;9.126;2023-07-31T06:35:58;98463.69;;;22.25;50.68
60820;BME280;46641;48.904;9.126;2023-07-31T06:40:49;98474.72;;;22.29;50.59
60820;BME280;46641;48.904;9.126;2023-07-31T06:45:39;98469.19;;;22.30;50.64
60820;BME280;46641;48.904;9.126;2023-07-31T06:50:33;98469.19;;;22.30;50.67
60820;BME280;46641;48.904;9.126;2023-07-31T06:55:23;98473.63;;;22.36;50.57
60820;BME280;46641;48.904;9.126;2023-07-31T07:00:14;98474.34;;;22.44;50.31
60820;BME280;46641;48.904;9.126;2023-07-31T07:05:06;98471.59;;;22.50;50.26
60820;BME280;46641;48.904;9.126;2023-07-31T07:09:57;98468.13;;;22.50;50.52
60820;BME280;46641;48.904;9.126;2023-07-31T07:14:49;98469.06;;;22.55;50.12
60820;BME280;46641;48.904;9.126;2023-07-31T07:19:42;98460.25;;;22.55;50.53
60820;BME280;46641;48.904;9.126;2023-07-31T07:24:32;98451.56;;;22.59;50.37
60820;BME280;46641;48.904;9.126;2023-07-31T07:29:23;98448.81;;;22.66;50.37
60820;BME280;46641;48.904;9.126;2023-07-31T07:34:13;98447.91;;;22.72;50.42
60820;BME280;46641;48.904;9.126;2023-07-31T07:39:03;98443.28;;;22.79;49.89
60820;BME280;46641;48.904;9.126;2023-07-31T07:43:53;98446.75;;;22.80;50.10
60820;BME280;46641;48.904;9.126;2023-07-31T07:48:44;98445.72;;;22.81;50.23
60820;BME280;46641;48.904;9.126;2023-07-31T07:53:34;98444.78;;;22.87;50.39
60820;BME280;46641;48.904;9.126;2023-07-31T07:58:24;98441.47;;;22.92;50.42
60820;BME280;46641;48.904;9.126;2023-07-31T08:03:15;98437.31;;;22.96;50.07
60820;BME280;46641;48.904;9.126;2023-07-31T08:08:06;98433.13;;;23.00;50.13
60820;BME280;46641;48.904;9.126;2023-07-31T08:12:58;98434.88;;;23.06;49.70
60820;BME280;46641;48.904;9.126;2023-07-31T08:17:48;98432.94;;;23.13;49.54
60820;BME280;46641;48.904;9.126;2023-07-31T08:22:38;98429.34;;;23.19;50.00
60820;BME280;46641;48.904;9.126;2023-07-31T08:27:29;98429.47;;;23.24;49.75
60820;BME280;46641;48.904;9.126;2023-07-31T08:32:19;98420.75;;;23.29;49.93
60820;BME280;46641;48.904;9.126;2023-07-31T08:37:10;98417.41;;;23.33;49.47
60820;BME280;46641;48.904;9.126;2023-07-31T08:42:01;98422.25;;;23.37;49.88
60820;BME280;46641;48.904;9.126;2023-07-31T08:46:52;98424.25;;;23.41;49.88
60820;BME280;46641;48.904;9.126;2023-07-31T08:51:43;98417.16;;;23.47;49.62
60820;BME280;46641;48.904;9.126;2023-07-31T08:56:34;98421.78;;;23.51;49.28
60820;BME280;46641;48.904;9.126;2023-07-31T09:01:28;98412.03;;;23.57;49.41
60820;BME280;46641;48.904;9.126;2023-07-31T09:06:20;98396.94;;;23.63;49.26
60820;BME280;46641;48.904;9.126;2023-07-31T09:11:13;98401.56;;;23.67;49.41
60820;BME280;46641;48.904;9.126;2023-07-31T09:16:03;98399.03;;;23.72;49.51
60820;BME280;46641;48.904;9.126;2023-07-31T09:21:01;98387.38;;;23.78;49.23
60820;BME280;46641;48.904;9.126;2023-07-31T09:25:52;98389.94;;;23.85;49.34
60820;BME280;46641;48.904;9.126;2023-07-31T09:30:49;98388.19;;;23.91;49.28
60820;BME280;46641;48.904;9.126;2023-07-31T09:35:40;98379.94;;;23.92;49.27
60820;BME280;46641;48.904;9.126;2023-07-31T09:40:36;98375.59;;;24.03;49.31
60820;BME280;46641;48.904;9.126;2023-07-31T09:45:27;98352.44;;;24.09;49.02
60820;BME280;46641;48.904;9.126;2023-07-31T09:50:20;98354.97;;;24.15;48.70
60820;BME280;46641;48.904;9.126;2023-07-31T09:55:12;98349.69;;;24.20;48.67
60820;BME280;46641;48.904;9.126;2023-07-31T10:00:02;98350.63;;;24.26;48.94
60820;BME280;46641;48.904;9.126;2023-07-31T10:04:56;98354.53;;;24.35;48.93
60820;BME280;46641;48.904;9.126;2023-07-31T10:09:48;98345.31;;;24.43;48.65
60820;BME280;46641;48.904;9.126;2023-07-31T10:14:40;98332.38;;;24.52;48.67
60820;BME280;46641;48.904;9.126;2023-07-31T10:19:31;98326.59;;;24.60;48.73
60820;BME280;46641;48.904;9.126;2023-07-31T10:24:23;98322.97;;;24.66;48.77
60820;BME280;46641;48.904;9.126;2023-07-31T10:29:15;98311.28;;;24.72;49.20
60820;BME280;46641;48.904;9.126;2023-07-31T10:34:08;98303.09;;;24.79;49.08
60820;BME280;46641;48.904;9.126;2023-07-31T10:38:58;98304.31;;;24.88;48.96
60820;BME280;46641;48.904;9.126;2023-07-31T10:43:48;98302.75;;;24.92;49.32
60820;BME280;46641;48.904;9.126;2023-07-31T10:48:40;98306.63;;;25.01;49.68
60820;BME280;46641;48.904;9.126;2023-07-31T10:53:32;98293.66;;;25.10;49.76
60820;BME280;46641;48.904;9.126;2023-07-31T10:58:22;98311.19;;;25.17;49.50
60820;BME280;46641;48.904;9.126;2023-07-31T11:03:15;98293.06;;;25.25;49.18
60820;BME280;46641;48.904;9.126;2023-07-31T11:08:13;98283.78;;;25.32;49.30
60820;BME280;46641;48.904;9.126;2023-07-31T11:13:06;98285.47;;;25.38;49.37
60820;BME280;46641;48.904;9.126;2023-07-31T11:17:57;98293.88;;;25.47;49.77
60820;BME280;46641;48.904;9.126;2023-07-31T11:22:49;98281.44;;;25.58;49.96
60820;BME280;46641;48.904;9.126;2023-07-31T11:27:40;98277.78;;;25.69;49.86
60820;BME280;46641;48.904;9.126;2023-07-31T11:32:33;98282.97;;;25.76;49.81
60820;BME280;46641;48.904;9.126;2023-07-31T11:37:24;98273.44;;;25.85;49.64
60820;BME280;46641;48.904;9.126;2023-07-31T11:42:15;98268.94;;;25.91;49.59
60820;BME280;46641;48.904;9.126;2023-07-31T11:47:06;98264.41;;;25.96;49.43
60820;BME280;46641;48.904;9.126;2023-07-31T11:51:57;98261.53;;;26.03;49.43
60820;BME280;46641;48.904;9.126;2023-07-31T11:56:47;98252.75;;;26.07;49.41
60820;BME280;46641;48.904;9.126;2023-07-31T12:01:38;98237.50;;;26.13;49.26
60820;BME280;46641;48.904;9.126;2023-07-31T12:06:35;98243.97;;;26.17;49.10
60820;BME280;46641;48.904;9.126;2023-07-31T12:11:25;98239.47;;;26.23;49.51
60820;BME280;46641;48.904;9.126;2023-07-31T12:16:16;98231.44;;;26.28;49.17
60820;BME280;46641;48.904;9.126;2023-07-31T12:21:08;98234.19;;;26.33;49.35
60820;BME280;46641;48.904;9.126;2023-07-31T12:30:57;98217.31;;;26.05;47.38
60820;BME280;46641;48.904;9.126;2023-07-31T12:35:47;98202.50;;;26.30;47.83
60820;BME280;46641;48.904;9.126;2023-07-31T12:40:39;98210.91;;;26.44;47.75
60820;BME280;46641;48.904;9.126;2023-07-31T12:45:30;98206.41;;;26.49;47.77
60820;BME280;46641;48.904;9.126;2023-07-31T12:50:21;98204.84;;;26.53;48.03
60820;BME280;46641;48.904;9.126;2023-07-31T12:55:11;98192.78;;;26.56;48.10
60820;BME280;46641;48.904;9.126;2023-07-31T13:00:03;98180.44;;;26.60;48.25
60820;BME280;46641;48.904;9.126;2023-07-31T13:04:53;98175.38;;;26.64;48.32
60820;BME280;46641;48.904;9.126;2023-07-31T13:09:44;98173.75;;;26.68;48.12
60820;BME280;46641;48.904;9.126;2023-07-31T13:14:34;98170.56;;;26.71;48.09
60820;BME280;46641;48.904;9.126;2023-07-31T13:19:25;98161.97;;;26.74;48.04
60820;BME280;46641;48.904;9.126;2023-07-31T13:24:15;98172.22;;;26.77;47.74
60820;BME280;46641;48.904;9.126;2023-07-31T13:29:05;98157.47;;;26.79;48.02
60820;BME280;46641;48.904;9.126;2023-07-31T13:33:55;98160.44;;;26.83;48.19
60820;BME280;46641;48.904;9.126;2023-07-31T13:38:46;98152.78;;;26.60;45.26
60820;BME280;46641;48.904;9.126;2023-07-31T13:43:36;98146.72;;;26.79;46.09
60820;BME280;46641;48.904;9.126;2023-07-31T13:48:26;98139.22;;;26.87;46.30
60820;BME280;46641;48.904;9.126;2023-07-31T13:53:16;98137.94;;;26.94;46.55
60820;BME280;46641;48.904;9.126;2023-07-31T13:58:07;98137.38;;;26.97;46.48
60820;BME280;46641;48.904;9.126;2023-07-31T14:02:57;98133.13;;;27.01;46.49
60820;BME280;46641;48.904;9.126;2023-07-31T14:07:47;98131.78;;;27.04;46.47
60820;BME280;46641;48.904;9.126;2023-07-31T14:12:37;98123.16;;;27.07;46.44
60820;BME280;46641;48.904;9.126;2023-07-31T14:17:28;98117.53;;;27.09;46.61
60820;BME280;46641;48.904;9.126;2023-07-31T14:22:31;98119.16;;;27.10;46.94
60820;BME280;46641;48.904;9.126;2023-07-31T14:27:23;98114.91;;;27.14;46.70
60820;BME280;46641;48.904;9.126;2023-07-31T14:32:13;98105.25;;;27.18;46.73
60820;BME280;46641;48.904;9.126;2023-07-31T14:37:04;98097.72;;;27.20;46.52
60820;BME280;46641;48.904;9.126;2023-07-31T14:41:54;98097.19;;;27.23;46.83
60820;BME280;46641;48.904;9.126;2023-07-31T14:46:45;98089.38;;;27.26;46.67
60820;BME280;46641;48.904;9.126;2023-07-31T14:51:35;98099.91;;;27.28;46.61
60820;BME280;46641;48.904;9.126;2023-07-31T14:56:25;98103.66;;;27.32;46.76
60820;BME280;46641;48.904;9.126;2023-07-31T15:01:18;98099.91;;;27.33;46.60
60820;BME280;46641;48.904;9.126;2023-07-31T15:06:08;98096.66;;;27.36;46.51
60820;BME280;46641;48.904;9.126;2023-07-31T15:10:58;98082.97;;;27.38;46.21
60820;BME280;46641;48.904;9.126;2023-07-31T15:15:49;98076.25;;;27.40;46.15
60820;BME280;46641;48.904;9.126;2023-07-31T15:20:39;98057.97;;;27.42;46.54
60820;BME280;46641;48.904;9.126;2023-07-31T15:25:29;98046.97;;;27.44;46.12
60820;BME280;46641;48.904;9.126;2023-07-31T15:30:19;98049.91;;;27.47;46.05
60820;BME280;46641;48.904;9.126;2023-07-31T15:35:10;98042.41;;;27.49;46.19
60820;BME280;46641;48.904;9.126;2023-07-31T15:40:00;98029.47;;;27.52;46.24
60820;BME280;46641;48.904;9.126;2023-07-31T15:44:50;98019.28;;;27.54;45.98
60820;BME280;46641;48.904;9.126;2023-07-31T15:49:41;97997.22;;;27.57;46.35
60820;BME280;46641;48.904;9.126;2023-07-31T15:54:31;97997.22;;;27.57;46.19
60820;BME280;46641;48.904;9.126;2023-07-31T15:59:21;97989.97;;;27.57;44.60
60820;BME280;46641;48.904;9.126;2023-07-31T16:04:12;97997.47;;;27.55;45.68
60820;BME280;46641;48.904;9.126;2023-07-31T16:09:02;98010.13;;;27.60;45.87
60820;BME280;46641;48.904;9.126;2023-07-31T16:13:52;98011.75;;;27.61;45.69
60820;BME280;46641;48.904;9.126;2023-07-31T16:18:43;98013.34;;;27.62;45.59
60820;BME280;46641;48.904;9.126;2023-07-31T16:23:33;97998.00;;;27.62;45.23
60820;BME280;46641;48.904;9.126;2023-07-31T16:28:23;97991.84;;;27.62;45.54
60820;BME280;46641;48.904;9.126;2023-07-31T16:33:14;97991.03;;;27.61;45.26
60820;BME280;46641;48.904;9.126;2023-07-31T16:38:05;98007.16;;;27.61;45.49
60820;BME280;46641;48.904;9.126;2023-07-31T16:42:55;97999.38;;;27.60;45.13
60820;BME280;46641;48.904;9.126;2023-07-31T16:47:45;97994.25;;;27.58;45.07
60820;BME280;46641;48.904;9.126;2023-07-31T16:52:36;97996.94;;;27.58;45.00
60820;BME280;46641;48.904;9.126;2023-07-31T16:57:26;98002.59;;;27.57;45.16
60820;BME280;46641;48.904;9.126;2023-07-31T17:02:16;97992.09;;;27.55;45.31
60820;BME280;46641;48.904;9.126;2023-07-31T17:07:07;97990.50;;;27.54;45.15
60820;BME280;46641;48.904;9.126;2023-07-31T17:11:57;97976.50;;;27.52;45.23
60820;BME280;46641;48.904;9.126;2023-07-31T17:16:47;97972.50;;;27.49;45.07
60820;BME280;46641;48.904;9.126;2023-07-31T17:21:39;97979.75;;;27.49;45.18
60820;BME280;46641;48.904;9.126;2023-07-31T17:26:29;97977.59;;;27.46;45.51
60820;BME280;46641;48.904;9.126;2023-07-31T17:31:20;97989.72;;;27.43;45.59
60820;BME280;46641;48.904;9.126;2023-07-31T17:36:11;97978.44;;;27.21;45.31
60820;BME280;46641;48.904;9.126;2023-07-31T17:41:01;97981.31;;;26.89;46.20
60820;BME280;46641;48.904;9.126;2023-07-31T17:45:52;97985.91;;;27.09;45.79
60820;BME280;46641;48.904;9.126;2023-07-31T17:50:42;97979.22;;;27.16;45.03
60820;BME280;46641;48.904;9.126;2023-07-31T17:55:33;97979.75;;;27.18;45.17
60820;BME280;46641;48.904;9.126;2023-07-31T18:00:23;97977.31;;;27.17;45.06
60820;BME280;46641;48.904;9.126;2023-07-31T18:05:14;97969.00;;;27.13;45.20
60820;BME280;46641;48.904;9.126;2023-07-31T18:10:04;97961.19;;;27.12;44.92
60820;BME280;46641;48.904;9.126;2023-07-31T18:14:57;97951.22;;;27.07;45.04
60820;BME280;46641;48.904;9.126;2023-07-31T18:19:47;97953.66;;;27.03;45.18
60820;BME280;46641;48.904;9.126;2023-07-31T18:24:38;97943.44;;;27.00;45.00
60820;BME280;46641;48.904;9.126;2023-07-31T18:29:28;97943.97;;;26.97;45.24
60820;BME280;46641;48.904;9.126;2023-07-31T18:34:18;97938.63;;;26.92;45.16
60820;BME280;46641;48.904;9.126;2023-07-31T18:39:09;97941.03;;;26.89;45.27
60820;BME280;46641;48.904;9.126;2023-07-31T18:43:59;97936.19;;;26.86;45.13
60820;BME280;46641;48.904;9.126;2023-07-31T18:48:49;97929.47;;;26.83;45.32
60820;BME280;46641;48.904;9.126;2023-07-31T18:53:40;97932.69;;;26.80;45.04
60820;BME280;46641;48.904;9.126;2023-07-31T18:58:30;97945.84;;;26.76;45.28
60820;BME280;46641;48.904;9.126;2023-07-31T19:03:20;97964.38;;;26.73;45.25
60820;BME280;46641;48.904;9.126;2023-07-31T19:08:11;97965.97;;;26.69;45.41
60820;BME280;46641;48.904;9.126;2023-07-31T19:13:02;97963.81;;;26.66;45.36
60820;BME280;46641;48.904;9.126;2023-07-31T19:17:55;97957.34;;;26.62;45.48
60820;BME280;46641;48.904;9.126;2023-07-31T19:22:45;97945.00;;;26.55;45.28
60820;BME280;46641;48.904;9.126;2023-07-31T19:27:36;97963.25;;;26.53;45.51
60820;BME280;46641;48.904;9.126;2023-07-31T19:32:27;97973.72;;;26.50;45.45
60820;BME280;46641;48.904;9.126;2023-07-31T19:37:17;97971.53;;;26.47;46.03
60820;BME280;46641;48.904;9.126;2023-07-31T19:42:08;97955.16;;;26.43;45.60
60820;BME280;46641;48.904;9.126;2023-07-31T19:46:58;97954.88;;;26.40;45.86
60820;BME280;46641;48.904;9.126;2023-07-31T19:51:49;97961.56;;;26.37;45.79
60820;BME280;46641;48.904;9.126;2023-07-31T19:56:39;97948.94;;;26.32;45.91
60820;BME280;46641;48.904;9.126;2023-07-31T20:01:31;97948.63;;;26.29;46.00
60820;BME280;46641;48.904;9.126;2023-07-31T20:06:21;97939.50;;;26.25;45.98
60820;BME280;46641;48.904;9.126;2023-07-31T20:11:11;97932.25;;;26.20;46.01
60820;BME280;46641;48.904;9.126;2023-07-31T20:16:02;97933.88;;;26.16;46.06
60820;BME280;46641;48.904;9.126;2023-07-31T20:20:53;97918.53;;;26.11;46.21
60820;BME280;46641;48.904;9.126;2023-07-31T20:25:43;97916.38;;;26.08;46.21
60820;BME280;46641;48.904;9.126;2023-07-31T20:30:34;97907.25;;;26.04;46.13
60820;BME280;46641;48.904;9.126;2023-07-31T20:35:24;97911.53;;;26.00;46.29
60820;BME280;46641;48.904;9.126;2023-07-31T20:40:14;97897.00;;;25.96;45.90
60820;BME280;46641;48.904;9.126;2023-07-31T20:45:05;97884.13;;;25.93;46.33
60820;BME280;46641;48.904;9.126;2023-07-31T20:49:56;97864.28;;;25.89;46.41
60820;BME280;46641;48.904;9.126;2023-07-31T20:54:46;97865.88;;;25.85;46.64
60820;BME280;46641;48.904;9.126;2023-07-31T20:59:36;97863.97;;;25.80;46.58
60820;BME280;46641;48.904;9.126;2023-07-31T21:04:27;97858.84;;;25.79;46.62
60820;BME280;46641;48.904;9.126;2023-07-31T21:09:19;97847.03;;;25.75;46.56
60820;BME280;46641;48.904;9.126;2023-07-31T21:14:09;97843.81;;;25.73;46.59
60820;BME280;46641;48.904;9.126;2023-07-31T21:18:59;97813.50;;;25.67;46.91
60820;BME280;46641;48.904;9.126;2023-07-31T21:23:51;97798.75;;;25.64;46.77
60820;BME280;46641;48.904;9.126;2023-07-31T21:28:41;97785.88;;;25.61;46.70
60820;BME280;46641;48.904;9.126;2023-07-31T21:33:31;97776.72;;;25.57;46.96
60820;BME280;46641;48.904;9.126;2023-07-31T21:38:22;97771.91;;;25.54;46.67
60820;BME280;46641;48.904;9.126;2023-07-31T21:43:12;97762.53;;;25.52;46.63
60820;BME280;46641;48.904;9.126;2023-07-31T21:48:02;97750.69;;;25.48;46.84
60820;BME280;46641;48.904;9.126;2023-07-31T21:52:53;97738.09;;;25.43;47.10
60820;BME280;46641;48.904;9.126;2023-07-31T21:57:43;97734.06;;;25.40;47.28
60820;BME280;46641;48.904;9.126;2023-07-31T22:02:34;97712.38;;;25.37;47.13
60820;BME280;46641;48.904;9.126;2023-07-31T22:07:25;97693.34;;;25.33;47.30
60820;BME280;46641;48.904;9.126;2023-07-31T22:12:15;97678.59;;;25.31;47.10
60820;BME280;46641;48.904;9.126;2023-07-31T22:17:06;97675.63;;;25.27;47.10
60820;BME280;46641;48.904;9.126;2023-07-31T22:21:56;97660.09;;;25.24;47.32
60820;BME280;46641;48.904;9.126;2023-07-31T22:26:47;97657.13;;;25.21;47.29
60820;BME280;46641;48.904;9.126;2023-07-31T22:31:37;97654.72;;;25.19;47.21
60820;BME280;46641;48.904;9.126;2023-07-31T22:36:27;97643.47;;;25.17;47.35
60820;BME280;46641;48.904;9.126;2023-07-31T22:41:17;97643.19;;;25.13;47.28
60820;BME280;46641;48.904;9.126;2023-07-31T22:46:08;97635.41;;;25.12;47.57
60820;BME280;46641;48.904;9.126;2023-07-31T22:50:58;97619.03;;;25.08;47.20
60820;BME280;46641;48.904;9.126;2023-07-31T22:55:48;97612.06;;;25.07;47.66
60820;BME280;46641;48.904;9.126;2023-07-31T23:00:38;97612.59;;;25.04;47.48
60820;BME280;46641;48.904;9.126;2023-07-31T23:05:29;97614.72;;;25.02;47.72
60820;BME280;46641;48.904;9.126;2023-07-31T23:10:19;97620.59;;;24.99;47.66
60820;BME280;46641;48.904;9.126;2023-07-31T23:15:09;97608.28;;;24.98;47.66
60820;BME280;46641;48.904;9.126;2023-07-31T23:20:00;97599.72;;;24.96;47.49
60820;BME280;46641;48.904;9.126;2023-07-31T23:24:52;97598.09;;;24.95;47.71
60820;BME280;46641;48.904;9.126;2023-07-31T23:29:42;97610.41;;;24.91;47.76
60820;BME280;46641;48.904;9.126;2023-07-31T23:34:33;97620.56;;;24.89;47.67
60820;BME280;46641;48.904;9.126;2023-07-31T23:39:23;97610.38;;;24.86;47.82
60820;BME280;46641;48.904;9.126;2023-07-31T23:44:14;97602.63;;;24.84;47.73
60820;BME280;46641;48.904;9.126;2023-07-31T23:49:04;97589.47;;;24.83;47.90
60820;BME280;46641;48.904;9.126;2023-07-31T23:53:54;97584.41;;;24.81;47.69
60820;BME280;46641;48.904;9.126;2023-07-31T23:58:45;97580.38;;;24.79;48.05
